sensor_id;sensor_type;location;lat;lon;timestamp;P1;durP1;ratioP1;P2;durP2;ratioP2
72156;SDS011;60035;52.122;5.406;2023-06-14T00:00:01;6.13;;;3.05;;
72156;SDS011;60035;52.122;5.406;2023-06-14T00:02:30;7.10;;;2.80;;
72156;SDS011;60035;52.122;5.406;2023-06-14T00:04:56;6.40;;;2.83;;
72156;SDS011;60035;52.122;5.406;2023-06-14T00:07:35;8.30;;;2.70;;
72156;SDS011;60035;52.122;5.406;2023-06-14T00:10:03;6.72;;;2.88;;
72156;SDS011;60035;52.122;5.406;2023-06-14T00:12:31;5.85;;;2.55;;
72156;SDS011;60035;52.122;5.406;2023-06-14T00:14:57;9.00;;;3.13;;
72156;SDS011;60035;52.122;5.406;2023-06-14T00:17:24;6.47;;;2.97;;
72156;SDS011;60035;52.122;5.406;2023-06-14T00:19:59;8.52;;;3.22;;
72156;SDS011;60035;52.122;5.406;2023-06-14T00:22:26;9.48;;;2.78;;
72156;SDS011;60035;52.122;5.406;2023-06-14T00:24:54;9.70;;;3.28;;
72156;SDS011;60035;52.122;5.406;2023-06-14T00:27:22;7.80;;;2.67;;
72156;SDS011;60035;52.122;5.406;2023-06-14T00:29:48;7.78;;;3.00;;
72156;SDS011;60035;52.122;5.406;2023-06-14T00:32:15;5.95;;;2.75;;
72156;SDS011;60035;52.122;5.406;2023-06-14T00:34:41;6.38;;;3.17;;
72156;SDS011;60035;52.122;5.406;2023-06-14T00:37:08;7.15;;;2.97;;
72156;SDS011;60035;52.122;5.406;2023-06-14T00:39:34;7.70;;;2.83;;
72156;SDS011;60035;52.122;5.406;2023-06-14T00:42:01;7.82;;;2.97;;
72156;SDS011;60035;52.122;5.406;2023-06-14T00:44:28;9.93;;;2.70;;
72156;SDS011;60035;52.122;5.406;2023-06-14T00:46:54;8.30;;;2.60;;
72156;SDS011;60035;52.122;5.406;2023-06-14T00:49:21;7.78;;;2.67;;
72156;SDS011;60035;52.122;5.406;2023-06-14T00:51:47;7.95;;;3.30;;
72156;SDS011;60035;52.122;5.406;2023-06-14T00:54:14;7.80;;;2.78;;
72156;SDS011;60035;52.122;5.406;2023-06-14T00:56:41;6.78;;;2.80;;
72156;SDS011;60035;52.122;5.406;2023-06-14T00:59:09;6.85;;;2.75;;
72156;SDS011;60035;52.122;5.406;2023-06-14T01:01:37;7.03;;;2.67;;
72156;SDS011;60035;52.122;5.406;2023-06-14T01:04:05;8.75;;;3.00;;
72156;SDS011;60035;52.122;5.406;2023-06-14T01:06:35;9.30;;;3.05;;
72156;SDS011;60035;52.122;5.406;2023-06-14T01:12:15;8.95;;;3.15;;
72156;SDS011;60035;52.122;5.406;2023-06-14T01:14:47;9.48;;;2.85;;
72156;SDS011;60035;52.122;5.406;2023-06-14T01:17:14;7.65;;;2.60;;
72156;SDS011;60035;52.122;5.406;2023-06-14T01:19:43;6.35;;;2.58;;
72156;SDS011;60035;52.122;5.406;2023-06-14T01:22:11;6.57;;;2.28;;
72156;SDS011;60035;52.122;5.406;2023-06-14T01:24:38;6.93;;;3.03;;
72156;SDS011;60035;52.122;5.406;2023-06-14T01:27:06;10.20;;;3.00;;
72156;SDS011;60035;52.122;5.406;2023-06-14T01:29:34;12.95;;;2.95;;
72156;SDS011;60035;52.122;5.406;2023-06-14T01:32:02;7.45;;;2.85;;
72156;SDS011;60035;52.122;5.406;2023-06-14T01:34:32;9.13;;;2.65;;
72156;SDS011;60035;52.122;5.406;2023-06-14T01:36:59;8.27;;;2.25;;
72156;SDS011;60035;52.122;5.406;2023-06-14T01:39:27;7.65;;;2.80;;
72156;SDS011;60035;52.122;5.406;2023-06-14T01:41:54;6.57;;;2.97;;
72156;SDS011;60035;52.122;5.406;2023-06-14T01:44:21;10.30;;;2.80;;
72156;SDS011;60035;52.122;5.406;2023-06-14T01:46:49;9.18;;;2.88;;
72156;SDS011;60035;52.122;5.406;2023-06-14T01:49:17;10.10;;;3.00;;
72156;SDS011;60035;52.122;5.406;2023-06-14T01:51:43;6.38;;;2.65;;
72156;SDS011;60035;52.122;5.406;2023-06-14T01:54:10;9.20;;;3.33;;
72156;SDS011;60035;52.122;5.406;2023-06-14T01:56:37;11.02;;;3.08;;
72156;SDS011;60035;52.122;5.406;2023-06-14T01:59:03;8.95;;;3.00;;
72156;SDS011;60035;52.122;5.406;2023-06-14T02:01:30;9.57;;;2.80;;
72156;SDS011;60035;52.122;5.406;2023-06-14T02:03:57;8.00;;;3.40;;
72156;SDS011;60035;52.122;5.406;2023-06-14T02:06:23;6.45;;;2.75;;
72156;SDS011;60035;52.122;5.406;2023-06-14T02:08:50;8.13;;;2.88;;
72156;SDS011;60035;52.122;5.406;2023-06-14T02:11:16;7.40;;;2.90;;
72156;SDS011;60035;52.122;5.406;2023-06-14T02:13:43;8.18;;;2.85;;
72156;SDS011;60035;52.122;5.406;2023-06-14T02:16:10;9.60;;;3.10;;
72156;SDS011;60035;52.122;5.406;2023-06-14T02:18:37;9.48;;;2.85;;
72156;SDS011;60035;52.122;5.406;2023-06-14T02:21:03;8.18;;;2.78;;
72156;SDS011;60035;52.122;5.406;2023-06-14T02:23:30;7.90;;;2.72;;
72156;SDS011;60035;52.122;5.406;2023-06-14T02:28:27;9.23;;;2.85;;
72156;SDS011;60035;52.122;5.406;2023-06-14T02:30:53;7.00;;;2.90;;
72156;SDS011;60035;52.122;5.406;2023-06-14T02:33:20;11.35;;;3.20;;
72156;SDS011;60035;52.122;5.406;2023-06-14T02:35:46;6.18;;;2.83;;
72156;SDS011;60035;52.122;5.406;2023-06-14T02:38:13;7.85;;;2.83;;
72156;SDS011;60035;52.122;5.406;2023-06-14T02:40:40;7.57;;;3.10;;
72156;SDS011;60035;52.122;5.406;2023-06-14T02:43:08;10.27;;;3.30;;
72156;SDS011;60035;52.122;5.406;2023-06-14T02:45:35;9.20;;;3.13;;
72156;SDS011;60035;52.122;5.406;2023-06-14T02:48:02;7.45;;;2.40;;
72156;SDS011;60035;52.122;5.406;2023-06-14T02:50:28;7.30;;;3.03;;
72156;SDS011;60035;52.122;5.406;2023-06-14T02:52:56;10.15;;;3.00;;
72156;SDS011;60035;52.122;5.406;2023-06-14T02:55:23;8.20;;;2.90;;
72156;SDS011;60035;52.122;5.406;2023-06-14T02:57:49;7.03;;;3.08;;
72156;SDS011;60035;52.122;5.406;2023-06-14T03:00:16;10.20;;;3.20;;
72156;SDS011;60035;52.122;5.406;2023-06-14T03:02:43;10.60;;;3.58;;
72156;SDS011;60035;52.122;5.406;2023-06-14T03:05:10;7.47;;;2.47;;
72156;SDS011;60035;52.122;5.406;2023-06-14T03:07:37;10.98;;;2.90;;
72156;SDS011;60035;52.122;5.406;2023-06-14T03:10:08;8.95;;;3.17;;
72156;SDS011;60035;52.122;5.406;2023-06-14T03:12:35;6.88;;;2.83;;
72156;SDS011;60035;52.122;5.406;2023-06-14T03:15:03;6.32;;;3.00;;
72156;SDS011;60035;52.122;5.406;2023-06-14T03:17:30;6.50;;;2.80;;
72156;SDS011;60035;52.122;5.406;2023-06-14T03:20:00;9.13;;;3.30;;
72156;SDS011;60035;52.122;5.406;2023-06-14T03:22:27;9.15;;;2.38;;
72156;SDS011;60035;52.122;5.406;2023-06-14T03:24:54;7.05;;;3.33;;
72156;SDS011;60035;52.122;5.406;2023-06-14T03:27:21;9.30;;;3.10;;
72156;SDS011;60035;52.122;5.406;2023-06-14T03:29:48;8.70;;;3.10;;
72156;SDS011;60035;52.122;5.406;2023-06-14T03:32:14;8.27;;;3.00;;
72156;SDS011;60035;52.122;5.406;2023-06-14T03:34:41;6.28;;;2.92;;
72156;SDS011;60035;52.122;5.406;2023-06-14T03:37:08;7.88;;;2.72;;
72156;SDS011;60035;52.122;5.406;2023-06-14T03:39:34;9.98;;;4.00;;
72156;SDS011;60035;52.122;5.406;2023-06-14T03:42:01;9.43;;;2.92;;
72156;SDS011;60035;52.122;5.406;2023-06-14T03:44:27;9.00;;;2.80;;
72156;SDS011;60035;52.122;5.406;2023-06-14T03:46:54;7.95;;;3.13;;
72156;SDS011;60035;52.122;5.406;2023-06-14T03:49:20;7.05;;;2.65;;
72156;SDS011;60035;52.122;5.406;2023-06-14T03:51:47;5.85;;;2.65;;
72156;SDS011;60035;52.122;5.406;2023-06-14T03:54:17;8.30;;;2.92;;
72156;SDS011;60035;52.122;5.406;2023-06-14T03:57:04;6.15;;;2.67;;
72156;SDS011;60035;52.122;5.406;2023-06-14T03:59:32;6.68;;;2.95;;
72156;SDS011;60035;52.122;5.406;2023-06-14T04:01:58;8.20;;;3.03;;
72156;SDS011;60035;52.122;5.406;2023-06-14T04:04:25;6.57;;;2.97;;
72156;SDS011;60035;52.122;5.406;2023-06-14T04:06:56;8.10;;;2.95;;
72156;SDS011;60035;52.122;5.406;2023-06-14T04:09:24;7.18;;;2.80;;
72156;SDS011;60035;52.122;5.406;2023-06-14T04:11:54;7.53;;;3.38;;
72156;SDS011;60035;52.122;5.406;2023-06-14T04:14:21;7.40;;;3.10;;
72156;SDS011;60035;52.122;5.406;2023-06-14T04:16:48;6.72;;;2.25;;
72156;SDS011;60035;52.122;5.406;2023-06-14T04:19:15;10.60;;;3.28;;
72156;SDS011;60035;52.122;5.406;2023-06-14T04:21:42;6.15;;;2.67;;
72156;SDS011;60035;52.122;5.406;2023-06-14T04:24:09;7.30;;;2.70;;
72156;SDS011;60035;52.122;5.406;2023-06-14T04:26:41;7.90;;;2.78;;
72156;SDS011;60035;52.122;5.406;2023-06-14T04:29:11;7.00;;;3.05;;
72156;SDS011;60035;52.122;5.406;2023-06-14T04:31:42;9.07;;;2.97;;
72156;SDS011;60035;52.122;5.406;2023-06-14T04:34:11;6.68;;;2.80;;
72156;SDS011;60035;52.122;5.406;2023-06-14T04:36:43;7.97;;;2.60;;
72156;SDS011;60035;52.122;5.406;2023-06-14T04:39:15;6.07;;;3.05;;
72156;SDS011;60035;52.122;5.406;2023-06-14T04:41:44;6.85;;;2.90;;
72156;SDS011;60035;52.122;5.406;2023-06-14T04:44:10;7.78;;;2.85;;
72156;SDS011;60035;52.122;5.406;2023-06-14T04:46:39;7.35;;;2.90;;
72156;SDS011;60035;52.122;5.406;2023-06-14T04:49:15;8.98;;;3.72;;
72156;SDS011;60035;52.122;5.406;2023-06-14T04:51:42;7.90;;;2.92;;
72156;SDS011;60035;52.122;5.406;2023-06-14T04:54:09;8.43;;;3.47;;
72156;SDS011;60035;52.122;5.406;2023-06-14T04:56:39;6.28;;;3.10;;
72156;SDS011;60035;52.122;5.406;2023-06-14T04:59:06;6.88;;;2.65;;
72156;SDS011;60035;52.122;5.406;2023-06-14T05:01:33;6.90;;;3.28;;
72156;SDS011;60035;52.122;5.406;2023-06-14T05:04:00;11.25;;;2.53;;
72156;SDS011;60035;52.122;5.406;2023-06-14T05:06:28;8.02;;;2.90;;
72156;SDS011;60035;52.122;5.406;2023-06-14T05:08:55;9.48;;;3.17;;
72156;SDS011;60035;52.122;5.406;2023-06-14T05:11:21;6.57;;;2.90;;
72156;SDS011;60035;52.122;5.406;2023-06-14T05:13:50;7.57;;;3.22;;
72156;SDS011;60035;52.122;5.406;2023-06-14T05:16:17;8.25;;;3.13;;
72156;SDS011;60035;52.122;5.406;2023-06-14T05:18:45;7.50;;;3.05;;
72156;SDS011;60035;52.122;5.406;2023-06-14T05:21:13;10.70;;;3.30;;
72156;SDS011;60035;52.122;5.406;2023-06-14T05:23:44;6.82;;;3.15;;
72156;SDS011;60035;52.122;5.406;2023-06-14T05:26:11;10.30;;;3.45;;
72156;SDS011;60035;52.122;5.406;2023-06-14T05:28:38;8.68;;;3.20;;
72156;SDS011;60035;52.122;5.406;2023-06-14T05:31:04;8.75;;;3.28;;
72156;SDS011;60035;52.122;5.406;2023-06-14T05:33:30;9.32;;;3.08;;
72156;SDS011;60035;52.122;5.406;2023-06-14T05:35:57;6.15;;;3.08;;
72156;SDS011;60035;52.122;5.406;2023-06-14T05:38:24;8.73;;;3.50;;
72156;SDS011;60035;52.122;5.406;2023-06-14T05:40:51;12.23;;;3.60;;
72156;SDS011;60035;52.122;5.406;2023-06-14T05:43:18;7.88;;;3.30;;
72156;SDS011;60035;52.122;5.406;2023-06-14T05:45:44;5.25;;;2.60;;
72156;SDS011;60035;52.122;5.406;2023-06-14T05:48:11;7.22;;;2.58;;
72156;SDS011;60035;52.122;5.406;2023-06-14T05:50:37;7.82;;;3.05;;
72156;SDS011;60035;52.122;5.406;2023-06-14T05:53:04;7.30;;;2.95;;
72156;SDS011;60035;52.122;5.406;2023-06-14T05:55:30;7.60;;;3.10;;
72156;SDS011;60035;52.122;5.406;2023-06-14T05:57:57;7.90;;;3.15;;
72156;SDS011;60035;52.122;5.406;2023-06-14T06:00:23;6.78;;;3.00;;
72156;SDS011;60035;52.122;5.406;2023-06-14T06:02:50;7.55;;;3.33;;
72156;SDS011;60035;52.122;5.406;2023-06-14T06:05:17;7.72;;;3.30;;
72156;SDS011;60035;52.122;5.406;2023-06-14T06:07:44;8.15;;;2.95;;
72156;SDS011;60035;52.122;5.406;2023-06-14T06:10:11;6.50;;;3.03;;
72156;SDS011;60035;52.122;5.406;2023-06-14T06:12:38;8.00;;;3.20;;
72156;SDS011;60035;52.122;5.406;2023-06-14T06:15:04;7.47;;;3.30;;
72156;SDS011;60035;52.122;5.406;2023-06-14T06:17:32;9.13;;;3.10;;
72156;SDS011;60035;52.122;5.406;2023-06-14T06:20:19;9.90;;;3.05;;
72156;SDS011;60035;52.122;5.406;2023-06-14T06:22:45;7.45;;;2.92;;
72156;SDS011;60035;52.122;5.406;2023-06-14T06:25:11;7.75;;;3.25;;
72156;SDS011;60035;52.122;5.406;2023-06-14T06:27:38;7.97;;;3.10;;
72156;SDS011;60035;52.122;5.406;2023-06-14T06:30:06;8.45;;;3.42;;
72156;SDS011;60035;52.122;5.406;2023-06-14T06:32:33;6.93;;;3.35;;
72156;SDS011;60035;52.122;5.406;2023-06-14T06:35:00;8.32;;;3.25;;
72156;SDS011;60035;52.122;5.406;2023-06-14T06:37:26;6.85;;;2.83;;
72156;SDS011;60035;52.122;5.406;2023-06-14T06:39:53;8.13;;;3.00;;
72156;SDS011;60035;52.122;5.406;2023-06-14T06:42:19;6.95;;;3.40;;
72156;SDS011;60035;52.122;5.406;2023-06-14T06:44:47;9.27;;;3.25;;
72156;SDS011;60035;52.122;5.406;2023-06-14T06:47:14;7.28;;;3.05;;
72156;SDS011;60035;52.122;5.406;2023-06-14T06:49:41;5.57;;;2.58;;
72156;SDS011;60035;52.122;5.406;2023-06-14T06:52:07;6.43;;;3.10;;
72156;SDS011;60035;52.122;5.406;2023-06-14T06:54:34;8.73;;;3.10;;
72156;SDS011;60035;52.122;5.406;2023-06-14T06:57:01;7.72;;;3.05;;
72156;SDS011;60035;52.122;5.406;2023-06-14T06:59:27;8.50;;;3.13;;
72156;SDS011;60035;52.122;5.406;2023-06-14T07:01:57;8.98;;;2.65;;
72156;SDS011;60035;52.122;5.406;2023-06-14T07:04:23;9.82;;;3.25;;
72156;SDS011;60035;52.122;5.406;2023-06-14T07:06:50;8.98;;;3.22;;
72156;SDS011;60035;52.122;5.406;2023-06-14T07:09:17;10.38;;;3.38;;
72156;SDS011;60035;52.122;5.406;2023-06-14T07:11:46;12.13;;;3.97;;
72156;SDS011;60035;52.122;5.406;2023-06-14T07:14:13;6.75;;;2.53;;
72156;SDS011;60035;52.122;5.406;2023-06-14T07:16:42;8.07;;;3.22;;
72156;SDS011;60035;52.122;5.406;2023-06-14T07:19:09;7.78;;;2.90;;
72156;SDS011;60035;52.122;5.406;2023-06-14T07:21:36;10.63;;;3.25;;
72156;SDS011;60035;52.122;5.406;2023-06-14T07:24:06;8.43;;;3.30;;
72156;SDS011;60035;52.122;5.406;2023-06-14T07:26:34;8.27;;;2.55;;
72156;SDS011;60035;52.122;5.406;2023-06-14T07:29:01;5.78;;;2.50;;
72156;SDS011;60035;52.122;5.406;2023-06-14T07:31:28;9.40;;;2.80;;
72156;SDS011;60035;52.122;5.406;2023-06-14T07:33:54;7.00;;;2.55;;
72156;SDS011;60035;52.122;5.406;2023-06-14T07:36:23;6.75;;;2.72;;
72156;SDS011;60035;52.122;5.406;2023-06-14T07:38:50;9.65;;;2.85;;
72156;SDS011;60035;52.122;5.406;2023-06-14T07:41:16;7.75;;;2.80;;
72156;SDS011;60035;52.122;5.406;2023-06-14T07:43:43;7.07;;;3.25;;
72156;SDS011;60035;52.122;5.406;2023-06-14T07:46:09;5.80;;;2.80;;
72156;SDS011;60035;52.122;5.406;2023-06-14T07:48:36;6.00;;;3.08;;
72156;SDS011;60035;52.122;5.406;2023-06-14T07:51:03;7.85;;;2.70;;
72156;SDS011;60035;52.122;5.406;2023-06-14T07:53:32;6.32;;;2.70;;
72156;SDS011;60035;52.122;5.406;2023-06-14T07:55:59;6.18;;;2.35;;
72156;SDS011;60035;52.122;5.406;2023-06-14T07:58:26;6.47;;;2.58;;
72156;SDS011;60035;52.122;5.406;2023-06-14T08:00:52;4.40;;;2.30;;
72156;SDS011;60035;52.122;5.406;2023-06-14T08:03:19;4.40;;;2.08;;
72156;SDS011;60035;52.122;5.406;2023-06-14T08:05:49;6.72;;;2.67;;
72156;SDS011;60035;52.122;5.406;2023-06-14T08:08:15;5.90;;;2.67;;
72156;SDS011;60035;52.122;5.406;2023-06-14T08:10:42;5.13;;;2.42;;
72156;SDS011;60035;52.122;5.406;2023-06-14T08:13:09;4.65;;;2.35;;
72156;SDS011;60035;52.122;5.406;2023-06-14T08:15:36;7.30;;;1.83;;
72156;SDS011;60035;52.122;5.406;2023-06-14T08:18:02;4.43;;;1.90;;
72156;SDS011;60035;52.122;5.406;2023-06-14T08:20:32;4.80;;;1.70;;
72156;SDS011;60035;52.122;5.406;2023-06-14T08:23:02;4.85;;;1.90;;
72156;SDS011;60035;52.122;5.406;2023-06-14T08:25:30;6.03;;;2.10;;
72156;SDS011;60035;52.122;5.406;2023-06-14T08:27:59;5.55;;;2.30;;
72156;SDS011;60035;52.122;5.406;2023-06-14T08:30:26;6.68;;;2.05;;
72156;SDS011;60035;52.122;5.406;2023-06-14T08:32:53;6.35;;;2.22;;
72156;SDS011;60035;52.122;5.406;2023-06-14T08:35:40;3.60;;;2.00;;
72156;SDS011;60035;52.122;5.406;2023-06-14T08:38:07;3.60;;;1.80;;
72156;SDS011;60035;52.122;5.406;2023-06-14T08:40:33;3.10;;;1.85;;
72156;SDS011;60035;52.122;5.406;2023-06-14T08:43:03;6.95;;;2.03;;
72156;SDS011;60035;52.122;5.406;2023-06-14T08:45:30;4.20;;;1.80;;
72156;SDS011;60035;52.122;5.406;2023-06-14T08:47:58;8.23;;;1.98;;
72156;SDS011;60035;52.122;5.406;2023-06-14T08:50:26;6.30;;;1.60;;
72156;SDS011;60035;52.122;5.406;2023-06-14T08:53:00;5.32;;;1.88;;
72156;SDS011;60035;52.122;5.406;2023-06-14T08:55:30;4.80;;;2.15;;
72156;SDS011;60035;52.122;5.406;2023-06-14T08:58:02;5.20;;;1.85;;
72156;SDS011;60035;52.122;5.406;2023-06-14T09:00:31;4.78;;;1.70;;
72156;SDS011;60035;52.122;5.406;2023-06-14T09:02:59;5.72;;;1.80;;
72156;SDS011;60035;52.122;5.406;2023-06-14T09:05:27;4.65;;;1.60;;
72156;SDS011;60035;52.122;5.406;2023-06-14T09:07:54;3.42;;;1.77;;
72156;SDS011;60035;52.122;5.406;2023-06-14T09:10:22;4.82;;;1.50;;
72156;SDS011;60035;52.122;5.406;2023-06-14T09:12:50;5.22;;;1.20;;
72156;SDS011;60035;52.122;5.406;2023-06-14T09:15:17;3.17;;;1.70;;
72156;SDS011;60035;52.122;5.406;2023-06-14T09:17:43;4.30;;;1.35;;
72156;SDS011;60035;52.122;5.406;2023-06-14T09:20:10;4.53;;;1.67;;
72156;SDS011;60035;52.122;5.406;2023-06-14T09:22:39;4.20;;;1.35;;
72156;SDS011;60035;52.122;5.406;2023-06-14T09:25:07;5.40;;;1.88;;
72156;SDS011;60035;52.122;5.406;2023-06-14T09:27:34;4.45;;;1.67;;
72156;SDS011;60035;52.122;5.406;2023-06-14T09:30:05;3.95;;;1.60;;
72156;SDS011;60035;52.122;5.406;2023-06-14T09:32:38;7.32;;;1.92;;
72156;SDS011;60035;52.122;5.406;2023-06-14T09:35:08;6.07;;;1.95;;
72156;SDS011;60035;52.122;5.406;2023-06-14T09:37:35;3.45;;;1.70;;
72156;SDS011;60035;52.122;5.406;2023-06-14T09:40:03;2.35;;;1.25;;
72156;SDS011;60035;52.122;5.406;2023-06-14T09:42:33;4.60;;;1.80;;
72156;SDS011;60035;52.122;5.406;2023-06-14T09:45:02;2.95;;;1.58;;
72156;SDS011;60035;52.122;5.406;2023-06-14T09:47:31;4.65;;;1.48;;
72156;SDS011;60035;52.122;5.406;2023-06-14T09:49:58;4.40;;;1.55;;
72156;SDS011;60035;52.122;5.406;2023-06-14T09:52:28;2.47;;;1.35;;
72156;SDS011;60035;52.122;5.406;2023-06-14T09:57:25;4.47;;;1.65;;
72156;SDS011;60035;52.122;5.406;2023-06-14T09:59:56;4.18;;;1.77;;
72156;SDS011;60035;52.122;5.406;2023-06-14T10:02:28;6.05;;;1.88;;
72156;SDS011;60035;52.122;5.406;2023-06-14T10:05:05;3.67;;;1.90;;
72156;SDS011;60035;52.122;5.406;2023-06-14T10:07:35;3.05;;;1.33;;
72156;SDS011;60035;52.122;5.406;2023-06-14T10:10:06;7.60;;;1.70;;
72156;SDS011;60035;52.122;5.406;2023-06-14T10:12:33;5.68;;;1.80;;
72156;SDS011;60035;52.122;5.406;2023-06-14T10:15:00;3.72;;;1.70;;
72156;SDS011;60035;52.122;5.406;2023-06-14T10:20:14;5.97;;;1.77;;
72156;SDS011;60035;52.122;5.406;2023-06-14T10:22:51;4.30;;;1.55;;
72156;SDS011;60035;52.122;5.406;2023-06-14T10:25:32;5.20;;;1.40;;
72156;SDS011;60035;52.122;5.406;2023-06-14T10:28:03;3.90;;;1.65;;
72156;SDS011;60035;52.122;5.406;2023-06-14T10:30:56;3.28;;;1.75;;
72156;SDS011;60035;52.122;5.406;2023-06-14T10:33:32;4.28;;;1.60;;
72156;SDS011;60035;52.122;5.406;2023-06-14T10:41:34;4.75;;;1.60;;
72156;SDS011;60035;52.122;5.406;2023-06-14T10:47:20;3.60;;;1.50;;
72156;SDS011;60035;52.122;5.406;2023-06-14T10:49:42;4.25;;;1.60;;
72156;SDS011;60035;52.122;5.406;2023-06-14T10:52:17;4.60;;;1.80;;
72156;SDS011;60035;52.122;5.406;2023-06-14T10:57:33;4.25;;;1.60;;
72156;SDS011;60035;52.122;5.406;2023-06-14T11:00:16;4.28;;;1.60;;
72156;SDS011;60035;52.122;5.406;2023-06-14T11:03:17;6.28;;;1.77;;
72156;SDS011;60035;52.122;5.406;2023-06-14T11:05:57;6.15;;;1.65;;
72156;SDS011;60035;52.122;5.406;2023-06-14T11:11:10;5.07;;;1.80;;
72156;SDS011;60035;52.122;5.406;2023-06-14T11:13:39;7.40;;;1.70;;
72156;SDS011;60035;52.122;5.406;2023-06-14T11:16:12;10.65;;;2.28;;
72156;SDS011;60035;52.122;5.406;2023-06-14T11:18:40;4.43;;;1.70;;
72156;SDS011;60035;52.122;5.406;2023-06-14T11:21:07;4.72;;;1.80;;
72156;SDS011;60035;52.122;5.406;2023-06-14T11:23:35;5.38;;;1.80;;
72156;SDS011;60035;52.122;5.406;2023-06-14T11:26:02;5.63;;;1.67;;
72156;SDS011;60035;52.122;5.406;2023-06-14T11:28:37;3.38;;;1.52;;
72156;SDS011;60035;52.122;5.406;2023-06-14T11:31:07;4.57;;;1.67;;
72156;SDS011;60035;52.122;5.406;2023-06-14T11:33:34;2.80;;;1.13;;
72156;SDS011;60035;52.122;5.406;2023-06-14T11:36:06;3.95;;;1.75;;
72156;SDS011;60035;52.122;5.406;2023-06-14T11:38:35;3.83;;;1.50;;
72156;SDS011;60035;52.122;5.406;2023-06-14T11:41:03;3.67;;;1.63;;
72156;SDS011;60035;52.122;5.406;2023-06-14T11:43:32;4.90;;;1.60;;
72156;SDS011;60035;52.122;5.406;2023-06-14T11:46:01;4.20;;;1.70;;
72156;SDS011;60035;52.122;5.406;2023-06-14T11:48:40;4.95;;;1.83;;
72156;SDS011;60035;52.122;5.406;2023-06-14T11:51:08;4.30;;;1.52;;
72156;SDS011;60035;52.122;5.406;2023-06-14T11:53:35;3.83;;;1.58;;
72156;SDS011;60035;52.122;5.406;2023-06-14T11:56:02;3.97;;;1.88;;
72156;SDS011;60035;52.122;5.406;2023-06-14T11:58:29;4.55;;;1.73;;
72156;SDS011;60035;52.122;5.406;2023-06-14T12:00:56;5.00;;;1.95;;
72156;SDS011;60035;52.122;5.406;2023-06-14T12:03:24;5.13;;;1.77;;
72156;SDS011;60035;52.122;5.406;2023-06-14T12:08:35;3.22;;;1.58;;
72156;SDS011;60035;52.122;5.406;2023-06-14T12:11:06;3.25;;;1.70;;
72156;SDS011;60035;52.122;5.406;2023-06-14T12:13:40;3.05;;;1.40;;
72156;SDS011;60035;52.122;5.406;2023-06-14T12:16:08;2.95;;;1.85;;
72156;SDS011;60035;52.122;5.406;2023-06-14T12:18:35;4.78;;;1.92;;
72156;SDS011;60035;52.122;5.406;2023-06-14T12:21:06;4.15;;;1.30;;
72156;SDS011;60035;52.122;5.406;2023-06-14T12:23:46;4.93;;;2.10;;
72156;SDS011;60035;52.122;5.406;2023-06-14T12:26:14;3.15;;;1.63;;
72156;SDS011;60035;52.122;5.406;2023-06-14T12:28:43;3.83;;;1.70;;
72156;SDS011;60035;52.122;5.406;2023-06-14T12:31:11;4.47;;;1.80;;
72156;SDS011;60035;52.122;5.406;2023-06-14T12:33:39;4.63;;;1.77;;
72156;SDS011;60035;52.122;5.406;2023-06-14T12:36:07;5.07;;;1.80;;
72156;SDS011;60035;52.122;5.406;2023-06-14T12:38:38;5.18;;;1.95;;
72156;SDS011;60035;52.122;5.406;2023-06-14T12:41:04;4.10;;;1.17;;
72156;SDS011;60035;52.122;5.406;2023-06-14T12:43:31;2.65;;;1.48;;
72156;SDS011;60035;52.122;5.406;2023-06-14T12:45:59;4.75;;;1.45;;
72156;SDS011;60035;52.122;5.406;2023-06-14T12:48:26;5.93;;;2.28;;
72156;SDS011;60035;52.122;5.406;2023-06-14T12:50:57;7.15;;;2.15;;
72156;SDS011;60035;52.122;5.406;2023-06-14T12:53:24;3.88;;;1.88;;
72156;SDS011;60035;52.122;5.406;2023-06-14T12:55:51;4.47;;;1.85;;
72156;SDS011;60035;52.122;5.406;2023-06-14T12:58:18;5.95;;;1.50;;
72156;SDS011;60035;52.122;5.406;2023-06-14T13:00:46;4.10;;;1.40;;
72156;SDS011;60035;52.122;5.406;2023-06-14T13:03:13;6.88;;;1.20;;
72156;SDS011;60035;52.122;5.406;2023-06-14T13:05:40;3.10;;;1.48;;
72156;SDS011;60035;52.122;5.406;2023-06-14T13:08:07;2.97;;;1.55;;
72156;SDS011;60035;52.122;5.406;2023-06-14T13:10:34;4.03;;;1.45;;
72156;SDS011;60035;52.122;5.406;2023-06-14T13:13:01;3.25;;;1.35;;
72156;SDS011;60035;52.122;5.406;2023-06-14T13:15:28;2.50;;;0.93;;
72156;SDS011;60035;52.122;5.406;2023-06-14T13:17:55;3.90;;;1.48;;
72156;SDS011;60035;52.122;5.406;2023-06-14T13:20:21;4.70;;;1.70;;
72156;SDS011;60035;52.122;5.406;2023-06-14T13:22:48;5.07;;;1.65;;
72156;SDS011;60035;52.122;5.406;2023-06-14T13:25:15;3.33;;;1.58;;
72156;SDS011;60035;52.122;5.406;2023-06-14T13:27:42;3.53;;;1.38;;
72156;SDS011;60035;52.122;5.406;2023-06-14T13:30:08;3.05;;;1.60;;
72156;SDS011;60035;52.122;5.406;2023-06-14T13:32:36;3.38;;;1.48;;
72156;SDS011;60035;52.122;5.406;2023-06-14T13:35:02;5.78;;;1.63;;
72156;SDS011;60035;52.122;5.406;2023-06-14T13:37:30;5.40;;;1.80;;
72156;SDS011;60035;52.122;5.406;2023-06-14T13:39:57;5.05;;;1.60;;
72156;SDS011;60035;52.122;5.406;2023-06-14T13:42:23;3.10;;;1.73;;
72156;SDS011;60035;52.122;5.406;2023-06-14T13:44:50;6.03;;;1.60;;
72156;SDS011;60035;52.122;5.406;2023-06-14T13:47:18;5.40;;;1.65;;
72156;SDS011;60035;52.122;5.406;2023-06-14T13:49:44;3.80;;;1.27;;
72156;SDS011;60035;52.122;5.406;2023-06-14T13:52:11;4.25;;;1.50;;
72156;SDS011;60035;52.122;5.406;2023-06-14T13:54:39;4.78;;;2.00;;
72156;SDS011;60035;52.122;5.406;2023-06-14T13:57:06;3.38;;;1.80;;
72156;SDS011;60035;52.122;5.406;2023-06-14T13:59:33;6.93;;;1.55;;
72156;SDS011;60035;52.122;5.406;2023-06-14T14:02:00;3.15;;;1.60;;
72156;SDS011;60035;52.122;5.406;2023-06-14T14:04:27;5.32;;;1.60;;
72156;SDS011;60035;52.122;5.406;2023-06-14T14:06:54;3.65;;;1.65;;
72156;SDS011;60035;52.122;5.406;2023-06-14T14:09:26;4.30;;;1.80;;
72156;SDS011;60035;52.122;5.406;2023-06-14T14:11:53;5.60;;;2.17;;
72156;SDS011;60035;52.122;5.406;2023-06-14T14:14:19;3.58;;;1.70;;
72156;SDS011;60035;52.122;5.406;2023-06-14T14:16:46;5.78;;;1.75;;
72156;SDS011;60035;52.122;5.406;2023-06-14T14:19:13;5.97;;;1.77;;
72156;SDS011;60035;52.122;5.406;2023-06-14T14:21:39;4.85;;;1.52;;
72156;SDS011;60035;52.122;5.406;2023-06-14T14:24:06;4.57;;;1.10;;
72156;SDS011;60035;52.122;5.406;2023-06-14T14:26:32;3.28;;;1.83;;
72156;SDS011;60035;52.122;5.406;2023-06-14T14:28:59;3.83;;;1.58;;
72156;SDS011;60035;52.122;5.406;2023-06-14T14:31:25;4.97;;;1.70;;
72156;SDS011;60035;52.122;5.406;2023-06-14T14:33:52;2.92;;;1.80;;
72156;SDS011;60035;52.122;5.406;2023-06-14T14:36:19;4.07;;;2.00;;
72156;SDS011;60035;52.122;5.406;2023-06-14T14:38:45;4.28;;;1.67;;
72156;SDS011;60035;52.122;5.406;2023-06-14T14:41:13;3.05;;;1.92;;
72156;SDS011;60035;52.122;5.406;2023-06-14T14:43:40;4.68;;;1.67;;
72156;SDS011;60035;52.122;5.406;2023-06-14T14:46:06;3.28;;;1.45;;
72156;SDS011;60035;52.122;5.406;2023-06-14T14:48:33;2.63;;;1.60;;
72156;SDS011;60035;52.122;5.406;2023-06-14T14:50:59;2.20;;;1.55;;
72156;SDS011;60035;52.122;5.406;2023-06-14T14:53:26;4.25;;;1.73;;
72156;SDS011;60035;52.122;5.406;2023-06-14T14:55:52;3.47;;;1.73;;
72156;SDS011;60035;52.122;5.406;2023-06-14T14:58:19;3.00;;;1.75;;
72156;SDS011;60035;52.122;5.406;2023-06-14T15:00:46;3.03;;;1.58;;
72156;SDS011;60035;52.122;5.406;2023-06-14T15:03:14;3.38;;;1.70;;
72156;SDS011;60035;52.122;5.406;2023-06-14T15:05:40;4.38;;;1.33;;
72156;SDS011;60035;52.122;5.406;2023-06-14T15:08:07;5.07;;;1.58;;
72156;SDS011;60035;52.122;5.406;2023-06-14T15:10:38;3.40;;;1.58;;
72156;SDS011;60035;52.122;5.406;2023-06-14T15:13:09;3.00;;;1.50;;
72156;SDS011;60035;52.122;5.406;2023-06-14T15:15:36;3.83;;;1.92;;
72156;SDS011;60035;52.122;5.406;2023-06-14T15:18:03;4.28;;;1.55;;
72156;SDS011;60035;52.122;5.406;2023-06-14T15:20:30;3.65;;;1.50;;